createdAt,value
2022-08-08T00:01:21.254Z,100607.66
2022-08-08T00:04:35.798Z,100613.87
2022-08-08T00:07:12.772Z,100624.59
2022-08-08T00:10:16.807Z,100612.22
2022-08-08T00:12:56.894Z,100613.34
2022-08-08T00:15:55.846Z,100618.09
2022-08-08T00:18:38.105Z,100612.50
2022-08-08T00:21:08.072Z,100609.28
2022-08-08T00:23:51.103Z,100611.28
2022-08-08T00:26:30.157Z,100607.25
2022-08-08T00:29:44.782Z,100611.72
2022-08-08T00:32:38.430Z,100621.53
2022-08-08T00:35:25.444Z,100617.44
2022-08-08T00:38:02.759Z,100617.84
2022-08-08T00:41:11.592Z,100616.50
2022-08-08T00:43:46.057Z,100609.91
2022-08-08T00:46:57.508Z,100620.50
2022-08-08T00:49:32.122Z,100616.75
2022-08-08T00:52:20.547Z,100620.91
2022-08-08T00:55:10.507Z,100624.13
2022-08-08T00:58:02.474Z,100629.59
2022-08-08T01:00:38.032Z,100629.69
2022-08-08T01:04:01.662Z,100624.44
2022-08-08T01:06:29.823Z,100620.16
2022-08-08T01:09:41.346Z,100627.41
2022-08-08T01:12:37.674Z,100630.66
2022-08-08T01:15:17.199Z,100630.13
2022-08-08T01:18:53.152Z,100637.66
2022-08-08T01:22:10.119Z,100630.59
2022-08-08T01:24:58.952Z,100629.63
2022-08-08T01:28:00.239Z,100632.41
2022-08-08T01:30:53.448Z,100640.84
2022-08-08T01:33:43.214Z,100634.34
2022-08-08T01:36:34.886Z,100640.19
2022-08-08T01:41:50.575Z,100625.38
2022-08-08T01:44:50.677Z,100619.16
2022-08-08T01:48:14.742Z,100620.94
2022-08-08T01:51:03.021Z,100626.34
2022-08-08T01:55:16.386Z,100628.84
2022-08-08T01:58:11.369Z,100629.63
2022-08-08T02:00:43.456Z,100637.50
2022-08-08T02:03:54.571Z,100629.94
2022-08-08T02:06:51.952Z,100625.78
2022-08-08T02:10:03.838Z,100634.84
2022-08-08T02:12:33.417Z,100635.06
2022-08-08T02:15:11.083Z,100632.34
2022-08-08T02:17:58.993Z,100621.41
2022-08-08T02:21:01.089Z,100623.44
2022-08-08T02:23:19.474Z,100628.31
2022-08-08T02:26:21.393Z,100617.44
2022-08-08T02:29:00.193Z,100620.25
2022-08-08T02:32:10.896Z,100613.66
2022-08-08T02:35:10.339Z,100622.75
2022-08-08T02:38:25.674Z,100621.06
2022-08-08T02:41:59.569Z,100627.00
2022-08-08T02:44:38.150Z,100624.53
2022-08-08T02:47:58.822Z,100613.75
2022-08-08T02:51:03.614Z,100612.56
2022-08-08T02:53:56.868Z,100619.19
2022-08-08T02:56:45.382Z,100607.16
2022-08-08T03:00:01.584Z,100610.13
2022-08-08T03:02:58.424Z,100618.88
2022-08-08T03:08:54.341Z,100630.84
2022-08-08T03:12:01.095Z,100633.09
2022-08-08T03:15:58.850Z,100644.97
2022-08-08T03:17:52.148Z,100642.12
2022-08-08T03:20:51.833Z,100638.25
2022-08-08T03:23:23.698Z,100642.47
2022-08-08T03:25:51.934Z,100645.31
2022-08-08T03:28:33.013Z,100642.88
2022-08-08T03:31:13.602Z,100646.16
2022-08-08T03:33:56.355Z,100650.59
2022-08-08T03:36:30.530Z,100656.44
2022-08-08T03:39:14.136Z,100661.34
2022-08-08T03:42:27.057Z,100657.28
2022-08-08T03:44:35.011Z,100662.25
2022-08-08T03:47:07.062Z,100660.19
2022-08-08T03:50:00.946Z,100665.28
2022-08-08T03:52:34.058Z,100663.50
2022-08-08T03:55:20.260Z,100658.34
2022-08-08T03:58:30.813Z,100661.09
2022-08-08T04:01:02.213Z,100662.78
2022-08-08T04:03:58.910Z,100662.34
2022-08-08T04:06:23.411Z,100670.47
2022-08-08T04:08:50.134Z,100666.53
2022-08-08T04:11:20.725Z,100671.53
2022-08-08T04:14:04.161Z,100670.87
2022-08-08T04:16:40.164Z,100671.53
2022-08-08T04:19:24.183Z,100682.66
2022-08-08T04:21:54.258Z,100683.31
2022-08-08T04:24:29.678Z,100688.53
2022-08-08T04:26:59.525Z,100687.47
2022-08-08T04:29:27.461Z,100693.34
2022-08-08T04:32:00.687Z,100694.22
2022-08-08T04:34:32.418Z,100689.69
2022-08-08T04:37:15.215Z,100690.22
2022-08-08T04:40:04.290Z,100690.47
2022-08-08T04:42:31.748Z,100697.06
2022-08-08T04:45:00.504Z,100702.66
2022-08-08T04:47:27.528Z,100701.66
2022-08-08T04:50:00.768Z,100704.97
2022-08-08T04:52:35.175Z,100706.88
2022-08-08T04:55:04.460Z,100702.06
2022-08-08T04:57:34.322Z,100706.28
2022-08-08T05:00:02.281Z,100706.38
2022-08-08T05:02:31.146Z,100717.06
2022-08-08T05:04:59.904Z,100714.97
2022-08-08T05:07:37.696Z,100714.22
2022-08-08T05:10:08.803Z,100718.44
2022-08-08T05:12:43.100Z,100712.13
2022-08-08T05:15:31.434Z,100712.06
2022-08-08T05:18:14.523Z,100715.78
2022-08-08T05:20:50.039Z,100705.31
2022-08-08T05:23:20.512Z,100712.47
2022-08-08T05:25:49.641Z,100718.31
2022-08-08T05:28:48.431Z,100719.16
2022-08-08T05:31:19.487Z,100720.53
2022-08-08T05:33:52.143Z,100719.34
2022-08-08T05:36:25.552Z,100713.47
2022-08-08T05:38:57.696Z,100721.53
2022-08-08T05:41:25.915Z,100730.34
2022-08-08T05:44:04.858Z,100724.72
2022-08-08T05:46:33.289Z,100728.28
2022-08-08T05:49:00.944Z,100726.91
2022-08-08T05:51:28.263Z,100723.81
2022-08-08T05:54:28.036Z,100733.66
2022-08-08T05:57:04.669Z,100741.87
2022-08-08T05:59:59.260Z,100739.84
2022-08-08T06:02:44.134Z,100738.06
2022-08-08T06:05:33.016Z,100739.25
2022-08-08T06:08:09.573Z,100735.72
2022-08-08T06:10:49.685Z,100731.63
2022-08-08T06:14:03.753Z,100739.03
2022-08-08T06:16:39.499Z,100743.75
2022-08-08T06:19:16.336Z,100737.09
2022-08-08T06:21:57.238Z,100745.53
2022-08-08T06:24:30.424Z,100745.03
2022-08-08T06:27:06.194Z,100747.78
2022-08-08T06:29:59.777Z,100749.00
2022-08-08T06:32:31.814Z,100753.84
2022-08-08T06:36:04.575Z,100759.34
2022-08-08T06:37:57.585Z,100752.97
2022-08-08T06:40:27.159Z,100751.16
2022-08-08T06:42:56.146Z,100752.34
2022-08-08T06:45:24.206Z,100745.28
2022-08-08T06:48:01.285Z,100742.72
2022-08-08T06:50:31.726Z,100732.00
2022-08-08T06:53:14.014Z,100744.22
2022-08-08T06:55:47.125Z,100735.72
2022-08-08T06:58:30.427Z,100744.63
2022-08-08T07:01:01.319Z,100745.06
2022-08-08T07:04:40.027Z,100754.91
2022-08-08T07:06:56.397Z,100755.47
2022-08-08T07:09:45.334Z,100753.78
2022-08-08T07:12:30.672Z,100745.37
2022-08-08T07:15:23.128Z,100751.00
2022-08-08T07:18:01.635Z,100750.56
2022-08-08T07:20:50.766Z,100755.31
2022-08-08T07:23:27.255Z,100751.91
2022-08-08T07:25:59.736Z,100758.34
2022-08-08T07:28:31.781Z,100757.88
2022-08-08T07:30:59.575Z,100764.78
2022-08-08T07:33:27.765Z,100767.66
2022-08-08T07:36:08.469Z,100765.00
2022-08-08T07:38:37.924Z,100762.53
2022-08-08T07:41:07.493Z,100772.22
2022-08-08T07:43:53.484Z,100769.16
2022-08-08T07:46:29.195Z,100768.91
2022-08-08T07:48:57.722Z,100775.00
2022-08-08T07:51:45.009Z,100782.41
2022-08-08T07:54:58.975Z,100780.13
2022-08-08T07:57:48.573Z,100793.03
2022-08-08T08:00:17.112Z,100790.78
2022-08-08T08:02:51.127Z,100788.72
2022-08-08T08:05:26.323Z,100789.94
2022-08-08T08:08:06.922Z,100795.53
2022-08-08T08:10:36.255Z,100790.84
2022-08-08T08:13:25.604Z,100793.53
2022-08-08T08:16:12.063Z,100795.63
2022-08-08T08:19:19.782Z,100800.84
2022-08-08T08:21:56.846Z,100798.75
2022-08-08T08:24:30.570Z,100798.41
2022-08-08T08:26:59.967Z,100787.00
2022-08-08T08:29:29.924Z,100797.56
2022-08-08T08:32:03.434Z,100795.19
2022-08-08T08:34:33.631Z,100800.25
2022-08-08T08:37:08.041Z,100804.22
2022-08-08T08:40:01.838Z,100806.56
2022-08-08T08:42:35.793Z,100819.91
2022-08-08T08:45:21.161Z,100823.84
2022-08-08T08:47:55.061Z,100832.81
2022-08-08T08:50:33.975Z,100825.06
2022-08-08T08:53:54.309Z,100826.69
2022-08-08T08:56:02.023Z,100817.44
2022-08-08T08:58:38.242Z,100819.72
2022-08-08T09:01:09.924Z,100823.19
2022-08-08T09:03:47.658Z,100835.66
2022-08-08T09:06:34.279Z,100827.91
2022-08-08T09:09:04.057Z,100834.09
2022-08-08T09:11:47.078Z,100826.00
2022-08-08T09:14:25.832Z,100835.66
2022-08-08T09:16:54.434Z,100837.44
2022-08-08T09:21:56.001Z,100851.50
2022-08-08T09:22:11.675Z,100849.66
2022-08-08T09:24:40.237Z,100846.34
2022-08-08T09:27:19.981Z,100851.31
2022-08-08T09:30:10.932Z,100846.50
2022-08-08T09:32:50.355Z,100850.34
2022-08-08T09:35:37.448Z,100849.12
2022-08-08T09:38:05.685Z,100845.22
2022-08-08T09:40:43.965Z,100836.31
2022-08-08T09:44:04.479Z,100842.28
2022-08-08T09:46:25.412Z,100835.16
2022-08-08T09:49:18.211Z,100843.97
2022-08-08T09:52:09.912Z,100844.94
2022-08-08T09:54:44.851Z,100842.38
2022-08-08T09:57:19.149Z,100840.47
2022-08-08T10:00:34.248Z,100842.28
2022-08-08T10:02:57.574Z,100833.63
2022-08-08T10:05:26.414Z,100831.19
2022-08-08T10:08:00.068Z,100832.66
2022-08-08T10:10:32.737Z,100826.47
2022-08-08T10:13:29.878Z,100834.53
2022-08-08T10:16:03.643Z,100834.13
2022-08-08T10:18:34.667Z,100837.66
2022-08-08T10:21:25.145Z,100831.97
2022-08-08T10:24:03.160Z,100825.28
2022-08-08T10:26:57.659Z,100829.94
2022-08-08T10:29:58.612Z,100825.78
2022-08-08T10:32:38.233Z,100823.16
2022-08-08T10:36:06.858Z,100830.19
2022-08-08T10:38:08.148Z,100828.34
2022-08-08T10:40:38.371Z,100820.13
2022-08-08T10:43:06.975Z,100817.06
2022-08-08T10:45:56.524Z,100823.28
2022-08-08T10:48:57.227Z,100815.50
2022-08-08T10:51:47.486Z,100812.19
2022-08-08T10:54:24.872Z,100812.31
2022-08-08T10:57:05.511Z,100813.66
2022-08-08T10:59:39.751Z,100806.00
2022-08-08T11:02:09.291Z,100801.97
2022-08-08T11:04:53.173Z,100807.78
2022-08-08T11:08:30.152Z,100801.41
2022-08-08T11:10:19.743Z,100802.22
2022-08-08T11:13:27.131Z,100808.75
2022-08-08T11:15:54.790Z,100806.22
2022-08-08T11:18:31.532Z,100806.84
2022-08-08T11:21:09.043Z,100802.13
2022-08-08T11:23:42.105Z,100795.56
2022-08-08T11:26:19.132Z,100790.66
2022-08-08T11:28:47.775Z,100786.63
2022-08-08T11:31:18.411Z,100793.13
2022-08-08T11:34:03.601Z,100793.81
2022-08-08T11:36:40.075Z,100791.19
2022-08-08T11:39:12.993Z,100784.81
2022-08-08T11:41:42.235Z,100796.13
2022-08-08T11:44:11.974Z,100784.00
2022-08-08T11:46:40.092Z,100797.66
2022-08-08T11:49:14.240Z,100803.22
2022-08-08T11:51:49.624Z,100795.47
2022-08-08T11:54:38.329Z,100790.31
2022-08-08T11:57:34.962Z,100790.19
2022-08-08T12:00:07.328Z,100803.44
2022-08-08T12:02:57.488Z,100801.78
2022-08-08T12:05:35.983Z,100807.78
2022-08-08T12:08:04.320Z,100800.84
2022-08-08T12:10:32.298Z,100800.25
2022-08-08T12:13:14.783Z,100802.91
2022-08-08T12:15:51.732Z,100797.91
2022-08-08T12:18:26.322Z,100801.75
2022-08-08T12:20:58.813Z,100795.34
2022-08-08T12:23:43.931Z,100789.66
2022-08-08T12:26:27.480Z,100788.97
2022-08-08T12:29:02.873Z,100794.94
2022-08-08T12:31:39.451Z,100789.53
2022-08-08T12:34:43.013Z,100779.37
2022-08-08T12:37:41.822Z,100787.72
2022-08-08T12:40:22.713Z,100792.50
2022-08-08T12:42:52.313Z,100781.19
2022-08-08T12:45:58.543Z,100776.31
2022-08-08T12:48:37.002Z,100769.56
2022-08-08T12:51:05.442Z,100769.53
2022-08-08T12:53:41.690Z,100770.75
2022-08-08T12:56:19.516Z,100770.44
2022-08-08T12:58:54.433Z,100780.28
2022-08-08T13:01:36.920Z,100765.28
2022-08-08T13:04:18.683Z,100781.28
2022-08-08T13:07:05.930Z,100772.37
2022-08-08T13:09:57.769Z,100770.69
2022-08-08T13:12:32.772Z,100771.38
2022-08-08T13:15:12.369Z,100772.75
2022-08-08T13:18:08.130Z,100770.75
2022-08-08T13:20:27.898Z,100772.56
2022-08-08T13:23:30.165Z,100775.75
2022-08-08T13:25:43.874Z,100771.38
2022-08-08T13:28:17.725Z,100761.22
2022-08-08T13:30:45.476Z,100750.25
2022-08-08T13:33:18.367Z,100746.72
2022-08-08T13:35:50.595Z,100757.53
2022-08-08T13:38:18.545Z,100756.97
2022-08-08T13:40:46.167Z,100757.06
2022-08-08T13:43:16.046Z,100756.31
2022-08-08T13:45:47.217Z,100759.94
2022-08-08T13:48:16.826Z,100760.72
2022-08-08T13:50:52.517Z,100776.09
2022-08-08T13:53:36.232Z,100760.22
2022-08-08T13:56:11.290Z,100756.91
2022-08-08T13:58:58.735Z,100771.50
2022-08-08T14:01:32.832Z,100765.63
2022-08-08T14:04:23.014Z,100772.13
2022-08-08T14:06:58.943Z,100780.53
2022-08-08T14:10:05.828Z,100763.88
2022-08-08T14:12:30.604Z,100768.44
2022-08-08T14:14:59.716Z,100770.88
2022-08-08T14:17:57.795Z,100784.72
2022-08-08T14:20:14.701Z,100777.47
2022-08-08T14:22:43.150Z,100784.44
2022-08-08T14:25:15.482Z,100777.47
2022-08-08T14:27:59.730Z,100780.75
2022-08-08T14:30:34.725Z,100780.44
2022-08-08T14:33:02.022Z,100779.13
2022-08-08T14:35:36.162Z,100790.09
2022-08-08T14:38:34.402Z,100779.37
2022-08-08T14:40:58.858Z,100794.06
2022-08-08T14:44:02.836Z,100798.41
2022-08-08T14:46:32.594Z,100801.34
2022-08-08T14:49:09.510Z,100802.16
2022-08-08T14:51:53.050Z,100791.75
2022-08-08T14:54:28.739Z,100798.25
2022-08-08T14:56:58.192Z,100811.34
2022-08-08T14:59:43.593Z,100806.72
2022-08-08T15:02:15.673Z,100804.62
2022-08-08T15:04:43.283Z,100812.22
2022-08-08T15:07:22.910Z,100810.50
2022-08-08T15:10:00.196Z,100809.78
2022-08-08T15:12:34.720Z,100811.28
2022-08-08T15:15:01.653Z,100817.69
2022-08-08T15:17:33.830Z,100806.13
2022-08-08T15:20:04.614Z,100796.63
2022-08-08T15:22:31.837Z,100799.78
2022-08-08T15:24:58.668Z,100803.13
2022-08-08T15:28:04.078Z,100796.87
2022-08-08T15:30:14.685Z,100788.00
2022-08-08T15:32:43.231Z,100795.41
2022-08-08T15:35:10.945Z,100800.94
2022-08-08T15:37:38.102Z,100800.63
2022-08-08T15:40:11.336Z,100797.84
2022-08-08T15:42:47.492Z,100796.41
2022-08-08T15:45:16.385Z,100792.50
2022-08-08T15:48:11.122Z,100794.75
2022-08-08T15:50:51.337Z,100786.47
2022-08-08T15:53:18.977Z,100792.91
2022-08-08T15:55:47.298Z,100791.09
2022-08-08T15:58:17.013Z,100778.53
2022-08-08T16:00:50.343Z,100776.97
2022-08-08T16:03:17.647Z,100782.72
2022-08-08T16:05:53.264Z,100784.47
2022-08-08T16:08:29.041Z,100788.56
2022-08-08T16:13:27.361Z,100785.78
2022-08-08T16:13:45.040Z,100787.78
2022-08-08T16:16:17.276Z,100792.56
2022-08-08T16:18:57.122Z,100793.72
2022-08-08T16:21:27.656Z,100790.72
2022-08-08T16:23:56.299Z,100792.38
2022-08-08T16:26:34.719Z,100794.16
2022-08-08T16:29:08.028Z,100795.09
2022-08-08T16:31:37.674Z,100795.91
2022-08-08T16:34:04.696Z,100806.09
2022-08-08T16:36:33.319Z,100808.59
2022-08-08T16:39:09.962Z,100809.03
2022-08-08T16:41:51.030Z,100817.47
2022-08-08T16:44:28.048Z,100814.94
2022-08-08T16:47:21.914Z,100808.19
2022-08-08T16:50:13.216Z,100805.59
2022-08-08T16:55:07.221Z,100803.72
2022-08-08T16:55:55.793Z,100800.25
2022-08-08T16:58:18.773Z,100805.31
2022-08-08T17:00:48.941Z,100806.19
2022-08-08T17:03:24.700Z,100810.03
2022-08-08T17:06:02.518Z,100812.47
2022-08-08T17:08:30.082Z,100814.81
2022-08-08T17:10:58.945Z,100814.34
2022-08-08T17:13:41.453Z,100818.12
2022-08-08T17:16:17.710Z,100820.41
2022-08-08T17:18:49.220Z,100821.34
2022-08-08T17:21:18.651Z,100815.12
2022-08-08T17:24:00.461Z,100818.44
2022-08-08T17:26:29.804Z,100825.59
2022-08-08T17:28:58.565Z,100819.16
2022-08-08T17:31:44.334Z,100813.59
2022-08-08T17:34:54.212Z,100816.28
2022-08-08T17:37:09.063Z,100819.06
2022-08-08T17:40:03.398Z,100818.66
2022-08-08T17:42:25.445Z,100823.72
2022-08-08T17:44:52.836Z,100822.09
2022-08-08T17:47:23.565Z,100823.91
2022-08-08T17:49:53.063Z,100830.84
2022-08-08T17:52:28.544Z,100828.91
2022-08-08T17:54:56.937Z,100836.09
2022-08-08T17:57:28.828Z,100839.22
2022-08-08T18:00:02.316Z,100837.16
2022-08-08T18:02:29.996Z,100834.13
2022-08-08T18:05:04.504Z,100842.56
2022-08-08T18:08:03.329Z,100841.78
2022-08-08T18:10:31.404Z,100847.59
2022-08-08T18:13:00.526Z,100844.72
2022-08-08T18:15:31.294Z,100854.13
2022-08-08T18:18:10.074Z,100859.91
2022-08-08T18:20:55.338Z,100867.28
2022-08-08T18:23:26.742Z,100861.41
2022-08-08T18:25:53.705Z,100855.75
2022-08-08T18:28:21.704Z,100851.50
2022-08-08T18:30:52.593Z,100857.91
2022-08-08T18:33:36.684Z,100861.13
2022-08-08T18:36:18.811Z,100860.41
2022-08-08T18:38:50.695Z,100867.81
2022-08-08T18:41:19.206Z,100866.16
2022-08-08T18:43:55.094Z,100870.19
2022-08-08T18:46:56.452Z,100877.47
2022-08-08T18:49:09.256Z,100880.91
2022-08-08T18:51:54.082Z,100879.09
2022-08-08T18:54:27.391Z,100879.97
2022-08-08T18:56:57.391Z,100884.19
2022-08-08T18:59:24.640Z,100888.28
2022-08-08T19:02:25.185Z,100883.38
2022-08-08T19:04:51.269Z,100888.34
2022-08-08T19:07:23.112Z,100886.72
2022-08-08T19:10:14.785Z,100888.13
2022-08-08T19:12:39.599Z,100886.97
2022-08-08T19:15:11.939Z,100883.06
2022-08-08T19:17:48.238Z,100884.28
2022-08-08T19:20:29.969Z,100887.34
2022-08-08T19:22:59.115Z,100902.47
2022-08-08T19:26:02.422Z,100903.25
2022-08-08T19:28:19.553Z,100905.66
2022-08-08T19:30:51.460Z,100915.50
2022-08-08T19:33:39.655Z,100916.41
2022-08-08T19:36:27.458Z,100914.78
2022-08-08T19:38:54.642Z,100919.53
2022-08-08T19:41:21.632Z,100908.78
2022-08-08T19:44:03.404Z,100909.19
2022-08-08T19:46:33.622Z,100903.38
2022-08-08T19:49:03.122Z,100907.91
2022-08-08T19:51:34.114Z,100901.00
2022-08-08T19:54:06.234Z,100908.09
2022-08-08T19:56:39.902Z,100903.19
2022-08-08T20:02:02.420Z,100892.94
2022-08-08T20:04:27.944Z,100881.69
2022-08-08T20:06:56.825Z,100902.59
2022-08-08T20:09:25.015Z,100894.47
2022-08-08T20:11:52.077Z,100895.56
2022-08-08T20:14:34.339Z,100893.66
2022-08-08T20:17:01.923Z,100886.44
2022-08-08T20:19:33.649Z,100876.88
2022-08-08T20:22:13.384Z,100876.47
2022-08-08T20:24:52.504Z,100874.44
2022-08-08T20:27:43.916Z,100869.34
2022-08-08T20:30:10.854Z,100877.97
2022-08-08T20:32:57.684Z,100883.72
2022-08-08T20:35:56.606Z,100895.88
2022-08-08T20:38:14.535Z,100897.13
2022-08-08T20:40:41.916Z,100899.47
2022-08-08T20:43:22.776Z,100896.59
2022-08-08T20:45:57.777Z,100898.59
2022-08-08T20:48:30.247Z,100891.50
2022-08-08T20:50:57.090Z,100891.37
2022-08-08T20:53:57.652Z,100888.88
2022-08-08T20:56:11.653Z,100892.81
2022-08-08T20:58:40.828Z,100880.25
2022-08-08T21:01:19.881Z,100878.81
2022-08-08T21:03:59.870Z,100876.25
2022-08-08T21:06:52.161Z,100876.94
2022-08-08T21:09:15.873Z,100893.16
2022-08-08T21:11:50.360Z,100894.97
2022-08-08T21:14:33.369Z,100896.03
2022-08-08T21:17:06.754Z,100895.41
2022-08-08T21:19:45.552Z,100900.56
2022-08-08T21:22:14.490Z,100908.31
2022-08-08T21:24:53.831Z,100904.91
2022-08-08T21:28:06.275Z,100905.91
2022-08-08T21:30:18.898Z,100904.78
2022-08-08T21:32:51.136Z,100918.25
2022-08-08T21:36:16.717Z,100919.53
2022-08-08T21:38:09.424Z,100916.13
2022-08-08T21:40:54.653Z,100923.00
2022-08-08T21:43:23.767Z,100910.09
2022-08-08T21:48:07.512Z,100912.50
2022-08-08T21:48:44.254Z,100919.72
2022-08-08T21:51:13.352Z,100921.06
2022-08-08T21:54:30.714Z,100918.31
2022-08-08T21:56:36.079Z,100918.44
2022-08-08T21:59:09.740Z,100915.19
2022-08-08T22:01:39.264Z,100922.19
2022-08-08T22:04:12.409Z,100924.06
2022-08-08T22:06:40.480Z,100925.19
2022-08-08T22:09:09.055Z,100933.09
2022-08-08T22:11:51.161Z,100932.09
2022-08-08T22:14:26.588Z,100942.47
2022-08-08T22:16:54.605Z,100939.97
2022-08-08T22:19:23.630Z,100939.78
2022-08-08T22:21:51.196Z,100938.84
2022-08-08T22:24:17.943Z,100933.19
2022-08-08T22:27:01.811Z,100939.50
2022-08-08T22:29:59.719Z,100938.16
2022-08-08T22:32:18.938Z,100930.66
2022-08-08T22:34:50.826Z,100930.94
2022-08-08T22:37:48.838Z,100932.94
2022-08-08T22:40:11.813Z,100929.22
2022-08-08T22:42:45.770Z,100929.75
2022-08-08T22:45:15.235Z,100937.53
2022-08-08T22:47:49.008Z,100945.53
2022-08-08T22:50:26.151Z,100941.78
2022-08-08T22:54:32.370Z,100936.56
2022-08-08T22:55:59.720Z,100936.47
2022-08-08T22:58:34.235Z,100933.94
2022-08-08T23:01:30.213Z,100926.41
2022-08-08T23:03:55.823Z,100927.78
2022-08-08T23:06:25.062Z,100931.06
2022-08-08T23:08:55.286Z,100923.97
2022-08-08T23:12:17.760Z,100930.16
2022-08-08T23:14:15.104Z,100924.78
2022-08-08T23:16:44.158Z,100925.50
2022-08-08T23:19:15.178Z,100911.87
2022-08-08T23:21:42.451Z,100912.53
2022-08-08T23:24:09.495Z,100910.59
2022-08-08T23:26:36.216Z,100907.87
2022-08-08T23:29:10.792Z,100909.56
2022-08-08T23:31:38.753Z,100901.56
2022-08-08T23:34:17.187Z,100903.25
2022-08-08T23:36:46.351Z,100898.31
2022-08-08T23:39:13.291Z,100893.19
2022-08-08T23:41:41.542Z,100898.06
2022-08-08T23:44:12.777Z,100904.22
2022-08-08T23:49:07.545Z,100904.63
2022-08-08T23:49:26.828Z,100905.28
2022-08-08T23:52:05.355Z,100913.53
2022-08-08T23:54:42.970Z,100907.28
2022-08-08T23:57:26.479Z,100909.69
